Time;durP1;ratioP1;P1;durP2;ratioP2;P2;SDS_P1;SDS_P2;PMS_P1;PMS_P2;Temp;Humidity;BMP_temperature;BMP_pressure;BME280_temperature;BME280_humidity;BME280_pressure;Samples;Min_cycle;Max_cycle;Signal;HPM_P1;HPM_P2
2023/12/13 00:01:18;;;;;;;3.88;2.30;;;;;;;1.39;100.00;100504.28;5055775;28;20044;-76
2023/12/13 00:03:44;;;;;;;6.78;6.07;;;;;;;1.51;100.00;100518.50;5062514;28;20035;-76
2023/12/13 00:06:09;;;;;;;34.75;9.25;;;;;;;1.02;100.00;100486.47;5035266;28;20447;-77
2023/12/13 00:08:35;;;;;;;4.93;4.65;;;;;;;1.38;100.00;100481.84;5060683;28;20077;-77
2023/12/13 00:11:00;;;;;;;3.80;3.60;;;;;;;2.07;100.00;100580.13;5062979;28;20044;-76
2023/12/13 00:13:26;;;;;;;3.13;2.95;;;;;;;1.39;100.00;100483.59;5059470;28;20109;-75
2023/12/13 00:15:53;;;;;;;5.45;5.15;;;;;;;1.59;100.00;100501.56;5055873;28;20436;-76
2023/12/13 00:18:19;;;;;;;1.95;1.85;;;;;;;1.41;100.00;100486.25;5062041;28;20063;-76
2023/12/13 00:20:44;;;;;;;0.50;0.50;;;;;;;2.01;100.00;100581.59;5043754;28;20480;-76
2023/12/13 00:23:10;;;;;;;3.08;2.78;;;;;;;1.27;100.00;100457.28;5058599;28;20191;-76
2023/12/13 00:25:35;;;;;;;5.28;4.88;;;;;;;2.11;100.00;100579.41;5058443;28;20762;-76
2023/12/13 00:28:01;;;;;;;0.75;0.75;;;;;;;2.11;100.00;100552.66;5061507;28;20559;-76
2023/12/13 00:30:26;;;;;;;1.38;1.35;;;;;;;2.07;100.00;100555.94;5063317;28;20137;-76
2023/12/13 00:32:52;;;;;;;19.33;17.67;;;;;;;2.28;100.00;100582.59;5065084;28;20056;-76
2023/12/13 00:35:18;;;;;;;10.63;9.82;;;;;;;2.03;100.00;100542.00;5066869;28;20562;-77
2023/12/13 00:37:44;;;;;;;1.77;1.67;;;;;;;2.14;100.00;100577.78;5061070;28;20440;-77
2023/12/13 00:40:10;;;;;;;1.52;1.42;;;;;;;1.35;100.00;100439.47;5066547;28;20044;-77
2023/12/13 00:42:37;;;;;;;4.40;3.03;;;;;;;1.38;100.00;100443.06;5063357;28;20067;-77
2023/12/13 00:45:04;;;;;;;5.00;4.78;;;;;;;2.32;100.00;100584.50;5060567;28;20040;-76
2023/12/13 00:47:30;;;;;;;0.93;0.90;;;;;;;1.83;100.00;100504.19;5062617;28;20068;-78
2023/12/13 00:49:56;;;;;;;0.60;0.60;;;;;;;2.11;100.00;100557.84;5063926;28;20080;-77
2023/12/13 00:52:21;;;;;;;7.43;4.93;;;;;;;1.98;100.00;100522.84;5045617;28;20460;-78
2023/12/13 00:54:47;;;;;;;3.72;3.53;;;;;;;1.79;100.00;100502.31;5065956;28;20097;-79
2023/12/13 00:57:12;;;;;;;3.15;2.97;;;;;;;1.65;100.00;100497.50;5067231;28;20044;-78
2023/12/13 00:59:38;;;;;;;0.55;0.55;;;;;;;1.34;100.00;100433.44;5060050;28;20139;-79
2023/12/13 01:02:06;;;;;;;17.98;5.40;;;;;;;2.29;100.00;100555.91;5064339;28;20507;-78
2023/12/13 01:04:34;;;;;;;1.48;1.40;;;;;;;2.10;100.00;100532.75;5063278;28;20034;-78
2023/12/13 01:07:00;;;;;;;2.88;2.67;;;;;;;1.98;100.00;100533.19;5065752;28;20028;-78
2023/12/13 01:09:26;;;;;;;1.60;1.50;;;;;;;1.65;100.00;100469.06;5045976;28;20130;-78
2023/12/13 01:11:52;;;;;;;2.50;2.40;;;;;;;1.67;100.00;100454.47;5060844;28;20452;-76
2023/12/13 01:14:19;;;;;;;0.65;0.65;;;;;;;1.62;100.00;100426.69;5063334;28;20068;-78
2023/12/13 01:16:44;;;;;;;3.22;3.03;;;;;;;2.15;100.00;100513.09;5063989;28;20057;-78
2023/12/13 01:19:11;;;;;;;7.22;6.82;;;;;;;2.40;100.00;100551.09;5066465;28;20031;-78
2023/12/13 01:21:37;;;;;;;11.20;10.60;;;;;;;2.27;100.00;100544.63;5067447;28;20054;-78
2023/12/13 01:24:03;;;;;;;0.98;0.98;;;;;;;1.64;100.00;100464.72;5068795;28;20060;-77
2023/12/13 01:26:28;;;;;;;5.22;4.93;;;;;;;1.55;100.00;100459.19;5067278;28;20040;-78
2023/12/13 01:28:54;;;;;;;1.75;1.63;;;;;;;1.20;100.00;100435.50;5064105;28;20450;-76
2023/12/13 01:31:19;;;;;;;7.07;6.50;;;;;;;1.60;100.00;100503.34;5068033;28;20032;-76
2023/12/13 01:33:45;;;;;;;4.13;3.90;;;;;;;2.03;100.00;100541.13;5064802;28;20032;-78
2023/12/13 01:36:11;;;;;;;3.05;2.95;;;;;;;1.89;100.00;100563.91;5070203;28;20116;-78
2023/12/13 01:38:36;;;;;;;1.23;1.23;;;;;;;0.89;100.00;100425.69;5059614;28;20068;-77
2023/12/13 01:41:03;;;;;;;4.00;3.70;;;;;;;1.32;100.00;100481.59;5067490;28;20523;-77
2023/12/13 01:43:29;;;;;;;14.25;10.60;;;;;;;0.74;100.00;100414.75;5061176;28;20028;-78
2023/12/13 01:45:57;;;;;;;0.50;0.50;;;;;;;0.68;100.00;100420.56;5067243;28;20083;-77
2023/12/13 01:48:25;;;;;;;0.50;0.50;;;;;;;1.20;100.00;100548.34;5070314;28;20055;-78
2023/12/13 01:50:52;;;;;;;1.95;1.85;;;;;;;0.92;100.00;100521.38;5060889;28;20048;-77
2023/12/13 01:53:18;;;;;;;5.90;5.57;;;;;;;0.97;100.00;100525.03;5066877;28;20048;-77
2023/12/13 01:55:45;;;;;;;4.03;3.83;;;;;;;1.37;100.00;100561.91;5048420;28;20048;-76
2023/12/13 01:58:12;;;;;;;7.82;7.43;;;;;;;0.91;100.00;100455.03;5062788;28;20039;-78
2023/12/13 02:00:41;;;;;;;5.45;5.05;;;;;;;1.09;100.00;100493.63;5061456;28;20059;-79
2023/12/13 02:03:09;;;;;;;11.07;6.00;;;;;;;1.43;100.00;100588.03;5061271;28;20068;-77
2023/12/13 02:05:35;;;;;;;3.60;3.30;;;;;;;0.65;100.00;100489.25;5061046;28;20762;-77
2023/12/13 02:08:02;;;;;;;2.35;2.25;;;;;;;1.31;100.00;100606.50;5065853;28;20120;-78
2023/12/13 02:10:28;;;;;;;4.05;3.85;;;;;;;1.57;100.00;100607.53;5068143;28;20075;-78
2023/12/13 02:12:53;;;;;;;28.73;14.55;;;;;;;1.04;100.00;100544.25;5068071;28;20039;-79
2023/12/13 02:15:20;;;;;;;13.32;12.38;;;;;;;1.23;100.00;100544.16;5062751;28;20056;-80
2023/12/13 02:17:52;;;;;;;2.25;1.58;;;;;;;1.75;100.00;100643.56;5064839;28;20100;-80
2023/12/13 02:20:20;;;;;;;2.85;2.65;;;;;;;0.86;100.00;100491.84;5061349;28;20048;-77
2023/12/13 02:22:46;;;;;;;13.85;12.82;;;;;;;1.14;100.00;100610.09;5045216;28;20133;-78
2023/12/13 02:25:16;;;;;;;2.60;2.47;;;;;;;1.12;100.00;100547.13;5042375;28;20643;-77
2023/12/13 02:27:43;;;;;;;4.07;3.88;;;;;;;0.61;100.00;100470.19;5064291;28;20505;-77
2023/12/13 02:30:09;;;;;;;3.42;1.50;;;;;;;1.41;100.00;100677.56;5064661;28;20488;-77
2023/12/13 02:32:36;;;;;;;1.17;1.08;;;;;;;1.34;100.00;100688.47;5061426;28;20055;-76
2023/12/13 02:35:03;;;;;;;0.68;0.63;;;;;;;1.37;100.00;100704.97;5059230;28;20054;-76
2023/12/13 02:37:29;;;;;;;0.95;0.95;;;;;;;1.20;100.00;100724.06;5059256;28;20044;-77
2023/12/13 02:39:55;;;;;;;6.72;6.43;;;;;;;0.49;100.00;100664.19;5062546;28;20043;-77
2023/12/13 02:42:21;;;;;;;2.38;2.17;;;;;;;0.31;100.00;100665.94;5064839;28;20091;-77
2023/12/13 02:44:46;;;;;;;0.93;0.93;;;;;;;1.31;100.00;100823.66;5041362;28;20045;-77
2023/12/13 02:47:12;;;;;;;2.15;2.05;;;;;;;1.42;100.00;100829.28;5069701;28;20048;-76
2023/12/13 02:49:37;;;;;;;1.17;1.05;;;;;;;0.69;100.00;100777.78;5062318;28;20052;-76
2023/12/13 02:52:04;;;;;;;4.57;4.35;;;;;;;0.75;100.00;100850.38;5060203;28;20090;-76
2023/12/13 02:54:29;;;;;;;1.15;1.15;;;;;;;0.62;100.00;100812.78;5048373;28;20113;-76
2023/12/13 02:56:55;;;;;;;1.77;1.67;;;;;;;0.88;100.00;100904.38;5058940;28;20603;-76
2023/12/13 02:59:20;;;;;;;16.50;15.02;;;;;;;0.15;100.00;100814.00;5059452;28;20052;-77
2023/12/13 03:01:46;;;;;;;4.55;4.25;;;;;;;0.33;100.00;100845.84;5055747;28;20090;-76
2023/12/13 03:04:12;;;;;;;14.10;13.30;;;;;;;0.38;100.00;100838.31;5062465;28;20040;-78
2023/12/13 03:06:37;;;;;;;4.78;4.57;;;;;;;0.28;100.00;100875.72;5060600;28;20095;-77
2023/12/13 03:09:03;;;;;;;3.45;3.25;;;;;;;1.25;100.00;101031.03;5061873;28;20055;-76
2023/12/13 03:11:28;;;;;;;5.00;4.57;;;;;;;1.22;100.00;101049.00;5055486;28;20770;-76
2023/12/13 03:13:54;;;;;;;1.85;1.75;;;;;;;0.97;100.00;100984.03;5058015;28;20445;-75
2023/12/13 03:16:19;;;;;;;4.00;3.80;;;;;;;1.65;100.00;101146.69;5015487;28;1238014;-76
2023/12/13 03:18:45;;;;;;;3.10;3.00;;;;;;;1.34;100.00;101122.78;5043418;28;20102;-76
2023/12/13 03:21:10;;;;;;;7.80;7.05;;;;;;;1.12;100.00;101106.19;5058639;28;20059;-76
2023/12/13 03:23:36;;;;;;;1.85;1.75;;;;;;;1.69;100.00;101200.38;5061315;28;20135;-75
2023/12/13 03:26:01;;;;;;;1.98;1.88;;;;;;;1.74;100.00;101235.94;5056075;28;20060;-76
2023/12/13 03:28:27;;;;;;;2.30;2.15;;;;;;;1.48;100.00;101345.03;5061853;28;20119;-75
2023/12/13 03:30:52;;;;;;;2.97;2.78;;;;;;;0.99;100.00;101293.34;5059875;28;20055;-77
2023/12/13 03:33:18;;;;;;;0.50;0.50;;;;;;;1.63;100.00;101385.41;5056429;28;20482;-76
2023/12/13 03:35:43;;;;;;;2.30;2.20;;;;;;;1.94;100.00;101413.75;5060943;28;20119;-76
2023/12/13 03:38:09;;;;;;;0.85;0.85;;;;;;;1.39;100.00;101331.63;5040232;28;20127;-76
2023/12/13 03:40:36;;;;;;;7.85;7.45;;;;;;;1.88;100.00;101414.34;5060096;28;20060;-76
2023/12/13 03:43:01;;;;;;;0.40;0.40;;;;;;;1.94;100.00;101428.38;5063827;28;20049;-76
2023/12/13 03:45:27;;;;;;;5.00;4.70;;;;;;;2.04;100.00;101436.72;5056676;28;20075;-77
2023/12/13 03:47:52;;;;;;;15.90;14.25;;;;;;;1.65;100.00;101391.56;5062931;28;20056;-77
2023/12/13 03:50:18;;;;;;;0.57;0.57;;;;;;;2.12;100.00;101468.16;5061956;28;20074;-77
2023/12/13 03:52:43;;;;;;;7.13;6.70;;;;;;;2.03;100.00;101467.69;5058951;28;20041;-77
2023/12/13 03:55:09;;;;;;;20.30;18.63;;;;;;;1.03;100.00;101340.91;5037730;28;20605;-76
2023/12/13 03:57:35;;;;;;;3.17;1.92;;;;;;;1.20;100.00;101447.78;5055571;28;20052;-75
2023/12/13 04:00:00;;;;;;;0.60;0.60;;;;;;;0.70;100.00;101365.78;5057203;28;20492;-76
2023/12/13 04:02:26;;;;;;;2.60;2.35;;;;;;;1.19;100.00;101466.69;5059449;28;20048;-76
2023/12/13 04:04:52;;;;;;;7.93;7.63;;;;;;;0.54;100.00;101353.72;5060934;28;20083;-77
2023/12/13 04:07:17;;;;;;;5.93;5.63;;;;;;;0.61;100.00;101367.09;5059943;28;20930;-77
2023/12/13 04:09:43;;;;;;;2.90;2.78;;;;;;;1.28;100.00;101446.50;5061639;28;20032;-77
2023/12/13 04:12:08;;;;;;;1.45;1.35;;;;;;;1.36;100.00;101470.19;5062153;28;20370;-78
2023/12/13 04:14:34;;;;;;;3.13;2.95;;;;;;;0.64;100.00;101345.69;5062706;28;20048;-77
2023/12/13 04:16:59;;;;;;;1.65;1.55;;;;;;;1.72;100.00;101504.91;5042807;28;20060;-77
2023/12/13 04:19:25;;;;;;;9.90;9.38;;;;;;;1.38;100.00;101453.97;5059923;28;20036;-76
2023/12/13 04:21:50;;;;;;;7.50;6.95;;;;;;;0.87;100.00;101439.97;5050588;28;20036;-76
2023/12/13 04:24:16;;;;;;;2.35;2.25;;;;;;;1.25;100.00;101508.38;5060789;28;20091;-76
2023/12/13 04:26:42;;;;;;;4.20;4.00;;;;;;;1.36;100.00;101530.56;5057429;28;20102;-76
2023/12/13 04:29:07;;;;;;;10.25;9.60;;;;;;;1.29;100.00;101514.59;5061824;28;20516;-78
2023/12/13 04:31:33;;;;;;;18.83;15.50;;;;;;;0.59;100.00;101417.75;5060495;28;20040;-75
2023/12/13 04:33:58;;;;;;;4.75;4.53;;;;;;;1.25;100.00;101532.53;5061453;28;20424;-77
2023/12/13 04:36:24;;;;;;;6.65;6.00;;;;;;;1.24;100.00;101535.03;5061274;28;20128;-75
2023/12/13 04:38:49;;;;;;;4.65;4.32;;;;;;;1.37;100.00;101537.50;5062293;28;20131;-76
2023/12/13 04:41:15;;;;;;;6.00;5.68;;;;;;;0.81;100.00;101440.50;5061910;28;20045;-77
2023/12/13 04:43:41;;;;;;;0.73;0.73;;;;;;;0.76;100.00;101456.56;5056454;28;20520;-77
2023/12/13 04:46:06;;;;;;;30.83;16.60;;;;;;;1.39;100.00;101577.25;5030874;28;20040;-77
2023/12/13 04:48:32;;;;;;;7.03;6.55;;;;;;;1.21;100.00;101566.78;5057520;28;20048;-78
2023/12/13 04:50:59;;;;;;;7.60;6.95;;;;;;;1.32;100.00;101572.56;5060141;28;20071;-78
2023/12/13 04:53:24;;;;;;;1.48;1.00;;;;;;;1.38;100.00;101587.50;5039576;28;20044;-77
2023/12/13 04:55:50;;;;;;;1.60;1.50;;;;;;;0.51;100.00;101473.22;5061072;28;20127;-76
2023/12/13 04:58:16;;;;;;;3.40;3.20;;;;;;;0.74;100.00;101517.56;5061720;28;20066;-76
2023/12/13 05:00:42;;;;;;;0.65;0.65;;;;;;;0.68;100.00;101501.69;5059824;28;20040;-77
2023/12/13 05:03:07;;;;;;;0.30;0.30;;;;;;;1.05;100.00;101559.88;5039920;28;20055;-76
2023/12/13 05:05:33;;;;;;;42.00;37.53;;;;;;;0.56;100.00;101512.22;5056201;28;20561;-77
2023/12/13 05:07:58;;;;;;;2.35;2.25;;;;;;;1.13;100.00;101612.00;5049643;28;20444;-77
2023/12/13 05:10:24;;;;;;;8.25;6.57;;;;;;;0.46;100.00;101515.97;5045496;28;20135;-78
2023/12/13 05:12:49;;;;;;;6.13;5.75;;;;;;;0.68;100.00;101574.94;5042954;28;20037;-77
2023/12/13 05:15:15;;;;;;;11.05;10.35;;;;;;;1.04;100.00;101616.63;5061836;28;20072;-77
2023/12/13 05:17:40;;;;;;;11.70;5.18;;;;;;;0.70;100.00;101572.44;5040405;28;20036;-76
2023/12/13 05:20:06;;;;;;;13.93;12.65;;;;;;;0.47;100.00;101528.09;5063389;28;20041;-76
2023/12/13 05:22:32;;;;;;;0.30;0.30;;;;;;;0.58;100.00;101541.59;5056459;28;20384;-78
2023/12/13 05:24:58;;;;;;;1.02;1.02;;;;;;;0.89;100.00;101620.88;5061433;28;20032;-75
2023/12/13 05:27:23;;;;;;;1.27;1.25;;;;;;;0.46;100.00;101569.31;5062742;28;20462;-77
2023/12/13 05:29:49;;;;;;;5.88;4.78;;;;;;;0.16;100.00;101481.50;5063037;28;20136;-77
2023/12/13 05:32:14;;;;;;;11.65;11.02;;;;;;;0.87;100.00;101605.31;5064083;28;20515;-76
2023/12/13 05:34:40;;;;;;;1.98;1.88;;;;;;;0.78;100.00;101602.19;5063980;28;20508;-76
2023/12/13 05:37:05;;;;;;;8.68;8.25;;;;;;;0.97;100.00;101628.28;5060964;28;20063;-76
2023/12/13 05:39:34;;;;;;;1.75;1.65;;;;;;;1.02;100.00;101642.38;5058603;28;20440;-77
2023/12/13 05:41:59;;;;;;;8.75;8.27;;;;;;;0.35;100.00;101517.00;5055697;28;20045;-77
2023/12/13 05:44:25;;;;;;;2.63;2.53;;;;;;;0.14;100.00;101512.38;5046066;28;20048;-77
2023/12/13 05:46:51;;;;;;;5.72;5.43;;;;;;;0.43;100.00;101557.09;5039755;28;20140;-76
2023/12/13 05:49:16;;;;;;;2.75;2.63;;;;;;;0.67;100.00;101574.84;5039815;28;20113;-75
2023/12/13 05:51:42;;;;;;;3.45;3.25;;;;;;;0.41;100.00;101509.66;5064338;28;20040;-78
2023/12/13 05:54:07;;;;;;;2.90;2.80;;;;;;;0.64;100.00;101531.66;5060597;28;20048;-77
2023/12/13 05:56:33;;;;;;;8.10;7.53;;;;;;;0.58;100.00;101529.59;5059216;28;20037;-78
2023/12/13 05:58:58;;;;;;;0.30;0.30;;;;;;;0.72;100.00;101558.78;5062439;28;20144;-76
2023/12/13 06:01:24;;;;;;;10.23;9.63;;;;;;;0.57;100.00;101540.72;5059063;28;20028;-78
2023/12/13 06:03:50;;;;;;;2.05;1.95;;;;;;;1.01;100.00;101635.44;5063536;28;20028;-78
2023/12/13 06:06:15;;;;;;;5.35;5.05;;;;;;;0.49;100.00;101531.66;5029699;28;20083;-79
2023/12/13 06:08:41;;;;;;;5.18;4.68;;;;;;;1.07;100.00;101649.50;5064039;28;20447;-78
2023/12/13 06:11:07;;;;;;;2.03;1.92;;;;;;;1.06;100.00;101627.94;5066805;28;20037;-77
2023/12/13 06:13:33;;;;;;;3.35;1.75;;;;;;;1.12;100.00;101622.22;5064498;28;20036;-78
2023/12/13 06:15:58;;;;;;;1.42;1.33;;;;;;;0.60;100.00;101520.22;5065931;28;20049;-76
2023/12/13 06:18:24;;;;;;;3.80;3.60;;;;;;;0.28;100.00;101461.59;5066208;28;20097;-78
2023/12/13 06:20:51;;;;;;;2.33;2.22;;;;;;;0.51;100.00;101509.38;5067104;28;20172;-78
2023/12/13 06:23:16;;;;;;;1.52;1.42;;;;;;;0.75;100.00;101528.00;5048546;28;20061;-78
2023/12/13 06:25:42;;;;;;;6.32;5.88;;;;;;;0.83;100.00;101575.81;5065239;28;20059;-79
2023/12/13 06:28:07;;;;;;;2.30;2.20;;;;;;;1.07;100.00;101614.22;5066223;28;20027;-77
2023/12/13 06:30:33;;;;;;;1.80;1.70;;;;;;;0.42;100.00;101483.00;5069444;28;20564;-77
2023/12/13 06:33:00;;;;;;;3.83;3.63;;;;;;;0.57;100.00;101470.13;5067732;28;20052;-77
2023/12/13 06:35:25;;;;;;;2.17;2.08;;;;;;;0.90;100.00;101520.22;5064785;28;20092;-79
2023/12/13 06:37:52;;;;;;;1.50;1.45;;;;;;;1.16;100.00;101544.06;5065618;28;20127;-77
2023/12/13 06:40:18;;;;;;;0.40;0.40;;;;;;;0.88;100.00;101529.56;5045880;28;20056;-78
2023/12/13 06:42:44;;;;;;;0.73;0.73;;;;;;;1.39;100.00;101591.91;5054461;28;20068;-77
2023/12/13 06:45:10;;;;;;;3.70;3.50;;;;;;;0.93;100.00;101517.81;5060718;28;20132;-82
2023/12/13 06:47:35;;;;;;;1.77;1.67;;;;;;;1.01;100.00;101526.91;5065347;28;20052;-81
2023/12/13 06:50:01;;;;;;;0.63;0.63;;;;;;;1.43;100.00;101589.56;5042182;28;20128;-73
2023/12/13 06:52:26;;;;;;;4.20;4.00;;;;;;;1.03;100.00;101502.03;5063554;28;20131;-73
2023/12/13 06:54:52;;;;;;;0.95;0.90;;;;;;;0.62;100.00;101491.94;5068208;28;20035;-74
2023/12/13 06:57:17;;;;;;;3.15;2.97;;;;;;;0.41;100.00;101464.06;5070780;28;20041;-73
2023/12/13 06:59:43;;;;;;;1.20;1.15;;;;;;;0.87;100.00;101563.06;5067049;28;20048;-73
2023/12/13 07:02:08;;;;;;;1.52;1.42;;;;;;;0.55;100.00;101519.09;5059688;28;20046;-74
2023/12/13 07:04:35;;;;;;;4.38;4.03;;;;;;;0.33;100.00;101483.38;5064988;28;20041;-74
2023/12/13 07:07:02;;;;;;;0.40;0.40;;;;;;;0.79;100.00;101529.94;5065471;28;20036;-75
2023/12/13 07:09:28;;;;;;;2.25;1.30;;;;;;;0.41;100.00;101505.38;5065196;28;20085;-76
2023/12/13 07:11:53;;;;;;;1.33;1.23;;;;;;;0.50;100.00;101505.03;5062607;28;20051;-74
2023/12/13 07:14:19;;;;;;;1.70;1.60;;;;;;;0.48;100.00;101509.19;5065989;28;20091;-74
2023/12/13 07:16:44;;;;;;;1.27;1.27;;;;;;;0.45;100.00;101447.06;5067867;28;20041;-73
2023/12/13 07:19:10;;;;;;;1.10;1.10;;;;;;;-0.54;100.00;101347.56;5059529;28;20024;-73
2023/12/13 07:21:36;;;;;;;2.70;2.58;;;;;;;0.52;100.00;101541.28;5064471;28;20499;-72
2023/12/13 07:24:03;;;;;;;6.03;5.38;;;;;;;-0.16;100.00;101423.72;5071452;28;20135;-74
2023/12/13 07:26:29;;;;;;;6.90;6.53;;;;;;;-0.03;100.00;101461.44;5043118;28;20590;-74
2023/12/13 07:28:55;;;;;;;9.73;6.82;;;;;;;0.12;100.00;101497.63;5067027;28;20044;-74
2023/12/13 07:31:21;;;;;;;0.30;0.30;;;;;;;0.36;100.00;101545.50;5064902;28;20033;-74
2023/12/13 07:33:46;;;;;;;1.48;1.45;;;;;;;-0.02;100.00;101487.34;5070586;28;20039;-73
2023/12/13 07:36:13;;;;;;;3.15;3.03;;;;;;;0.36;100.00;101545.50;5059172;28;20044;-73
2023/12/13 07:38:41;;;;;;;4.43;4.22;;;;;;;-0.05;100.00;101465.63;5054711;28;20106;-73
2023/12/13 07:41:09;;;;;;;2.30;2.20;;;;;;;0.05;100.00;101504.09;5058366;28;20464;-74
2023/12/13 07:43:35;;;;;;;2.47;1.95;;;;;;;-0.09;100.00;101500.69;5068243;28;20045;-72
2023/12/13 07:46:00;;;;;;;2.50;2.40;;;;;;;-0.08;100.00;101515.34;5056758;28;20044;-73
2023/12/13 07:48:26;;;;;;;14.13;12.73;;;;;;;0.47;100.00;101613.28;5063415;28;20076;-73
2023/12/13 07:50:52;;;;;;;5.55;5.10;;;;;;;0.45;100.00;101607.16;5067700;28;20048;-73
2023/12/13 07:53:17;;;;;;;4.18;3.97;;;;;;;0.68;100.00;101625.69;5069410;28;20036;-73
2023/12/13 07:55:43;;;;;;;2.03;1.92;;;;;;;-0.13;100.00;101509.03;5070212;28;20048;-73
2023/12/13 07:58:08;;;;;;;1.38;1.27;;;;;;;0.44;100.00;101612.19;5041547;28;20029;-74
2023/12/13 08:00:35;;;;;;;3.97;3.72;;;;;;;0.65;100.00;101630.69;5064455;28;20442;-73
2023/12/13 08:03:00;;;;;;;0.82;0.82;;;;;;;-0.33;100.00;101469.16;5062887;28;20083;-73
2023/12/13 08:05:26;;;;;;;2.58;2.47;;;;;;;0.29;100.00;101583.78;5069283;28;20049;-73
2023/12/13 08:07:51;;;;;;;2.83;2.72;;;;;;;0.01;100.00;101506.41;5066805;28;20037;-74
2023/12/13 08:10:18;;;;;;;3.88;3.70;;;;;;;0.06;100.00;101525.63;5067627;28;20033;-74
2023/12/13 08:12:43;;;;;;;1.73;1.63;;;;;;;0.22;100.00;101558.41;5070443;28;20120;-74
2023/12/13 08:15:10;;;;;;;5.35;5.10;;;;;;;0.13;100.00;101564.78;5066508;28;20123;-73
2023/12/13 08:17:36;;;;;;;7.32;5.15;;;;;;;0.87;100.00;101681.91;5036563;28;20079;-74
2023/12/13 08:20:02;;;;;;;1.95;1.85;;;;;;;0.27;100.00;101588.84;5064557;28;20487;-75
2023/12/13 08:22:27;;;;;;;23.40;21.42;;;;;;;0.53;100.00;101657.53;5071117;28;20119;-73
2023/12/13 08:24:52;;;;;;;11.05;10.40;;;;;;;0.40;100.00;101634.38;5065777;28;20047;-74
2023/12/13 08:27:18;;;;;;;4.43;4.15;;;;;;;0.25;100.00;101621.41;5059195;28;20534;-74
2023/12/13 08:29:44;;;;;;;1.90;1.80;;;;;;;0.25;100.00;101624.00;5061554;28;20049;-74
2023/12/13 08:32:09;;;;;;;0.73;0.73;;;;;;;1.00;100.00;101747.34;5045802;28;21501;-74
2023/12/13 08:34:35;;;;;;;4.32;2.95;;;;;;;0.99;100.00;101731.75;5064831;28;20699;-73
2023/12/13 08:37:01;;;;;;;1.67;1.00;;;;;;;0.70;100.00;101679.22;5068019;28;20036;-73
2023/12/13 08:39:27;;;;;;;9.95;9.30;;;;;;;0.43;100.00;101662.06;5068788;28;20055;-74
2023/12/13 08:41:53;;;;;;;0.85;0.82;;;;;;;0.95;100.00;101740.13;5063771;28;20079;-74
2023/12/13 08:44:18;;;;;;;2.00;1.90;;;;;;;0.89;100.00;101720.00;5062957;28;20403;-75
2023/12/13 08:46:45;;;;;;;2.67;2.58;;;;;;;0.57;100.00;101671.53;5062938;28;20048;-73
2023/12/13 08:49:11;;;;;;;1.48;1.38;;;;;;;0.69;100.00;101684.31;5049607;28;20436;-74
2023/12/13 08:51:37;;;;;;;1.60;1.50;;;;;;;0.80;100.00;101699.66;5067768;28;20040;-74
2023/12/13 08:54:03;;;;;;;0.50;0.50;;;;;;;0.90;100.00;101695.03;5060221;28;20087;-74
2023/12/13 08:56:29;;;;;;;2.67;2.58;;;;;;;1.59;100.00;101807.69;5037572;28;20697;-74
2023/12/13 08:58:54;;;;;;;1.02;1.02;;;;;;;1.49;100.00;101762.28;5062949;28;20032;-73
2023/12/13 09:01:20;;;;;;;1.20;1.17;;;;;;;0.36;100.00;101567.88;5060602;28;20036;-74
2023/12/13 09:03:46;;;;;;;7.35;6.97;;;;;;;1.41;100.00;101717.88;5036530;28;20044;-74
2023/12/13 09:06:14;;;;;;;1.95;1.85;;;;;;;1.68;100.00;101746.13;5061419;28;20094;-74
2023/12/13 09:08:40;;;;;;;3.17;3.03;;;;;;;0.92;100.00;101616.81;5064830;28;20083;-75
2023/12/13 09:11:05;;;;;;;0.80;0.80;;;;;;;1.47;100.00;101707.00;5063954;28;20056;-74
2023/12/13 09:13:32;;;;;;;11.07;9.20;;;;;;;1.43;100.00;101695.59;5060044;28;20029;-75
2023/12/13 09:15:58;;;;;;;7.20;6.75;;;;;;;1.29;100.00;101639.63;5063954;28;20121;-74
2023/12/13 09:18:23;;;;;;;10.90;9.80;;;;;;;1.10;100.00;101626.41;5066366;28;20048;-72
2023/12/13 09:20:49;;;;;;;1.77;1.67;;;;;;;1.63;100.00;101694.13;5044427;28;20049;-75
2023/12/13 09:23:22;;;;;;;4.47;4.28;;;;;;;1.22;100.00;101634.91;5062672;28;20393;-75
2023/12/13 09:25:48;;;;;;;7.45;7.03;;;;;;;0.67;100.00;101518.91;5061176;28;20060;-74
2023/12/13 09:28:13;;;;;;;3.03;2.92;;;;;;;1.71;100.00;101691.09;5064429;28;20731;-75
2023/12/13 09:30:39;;;;;;;0.50;0.50;;;;;;;0.72;100.00;101501.97;5062950;28;20044;-73
2023/12/13 09:33:04;;;;;;;4.53;4.13;;;;;;;1.83;100.00;101669.41;5063804;28;20052;-72
2023/12/13 09:35:30;;;;;;;11.63;7.63;;;;;;;1.41;100.00;101585.13;5064923;28;20048;-76
2023/12/13 09:37:56;;;;;;;2.35;2.25;;;;;;;1.55;100.00;101624.69;5059104;28;20083;-75
2023/12/13 09:40:22;;;;;;;17.45;15.60;;;;;;;1.46;100.00;101604.38;5056462;28;20056;-75
2023/12/13 09:42:47;;;;;;;6.95;6.57;;;;;;;1.89;100.00;101669.72;5068467;28;20563;-73
2023/12/13 09:45:20;;;;;;;1.48;1.40;;;;;;;1.63;100.00;101589.78;5063329;28;20044;-72
2023/12/13 09:47:47;;;;;;;2.80;2.70;;;;;;;1.96;100.00;101663.19;5060952;28;20400;-73
2023/12/13 09:50:14;;;;;;;1.25;1.15;;;;;;;1.86;100.00;101638.50;5061991;28;20044;-74
2023/12/13 09:52:41;;;;;;;0.90;0.90;;;;;;;1.49;100.00;101555.38;5058457;28;20052;-75
2023/12/13 09:55:08;;;;;;;2.00;1.00;;;;;;;2.16;100.00;101661.69;5070052;28;20451;-73
2023/12/13 09:57:34;;;;;;;17.05;16.08;;;;;;;2.41;100.00;101692.41;5072902;28;20124;-75
2023/12/13 10:00:00;;;;;;;1.25;0.93;;;;;;;2.31;100.00;101683.22;5061955;28;20122;-75
2023/12/13 10:02:26;;;;;;;7.07;6.43;;;;;;;2.10;100.00;101625.09;5067836;28;20378;-75
2023/12/13 10:04:52;;;;;;;5.05;4.68;;;;;;;2.91;100.00;101752.91;5059986;28;20040;-74
2023/12/13 10:07:18;;;;;;;0.30;0.30;;;;;;;2.95;100.00;101760.03;5043830;28;20460;-73
2023/12/13 10:09:45;;;;;;;0.30;0.30;;;;;;;2.74;100.00;101729.56;5068219;28;20016;-73
2023/12/13 10:12:14;;;;;;;5.78;5.43;;;;;;;3.19;100.00;101765.59;5072298;28;20113;-73
2023/12/13 10:14:39;;;;;;;4.53;4.22;;;;;;;2.90;100.00;101709.63;5064835;28;20052;-73
2023/12/13 10:17:05;;;;;;;0.73;0.73;;;;;;;3.15;100.00;101755.88;5067431;28;20051;-74
2023/12/13 10:19:32;;;;;;;0.70;0.70;;;;;;;3.17;100.00;101741.28;5067534;28;20032;-74
2023/12/13 10:21:58;;;;;;;0.45;0.45;;;;;;;3.30;100.00;101711.66;5066749;28;20053;-74
2023/12/13 10:24:27;;;;;;;6.65;1.73;;;;;;;3.23;100.00;101710.50;5055857;28;20055;-74
2023/12/13 10:26:53;;;;;;;0.50;0.50;;;;;;;3.17;100.00;101692.00;5041926;28;20377;-73
2023/12/13 10:29:21;;;;;;;3.33;3.13;;;;;;;2.92;100.00;101607.78;5068053;28;20086;-74
2023/12/13 10:31:47;;;;;;;1.65;1.55;;;;;;;3.71;100.00;101711.13;5048013;28;20119;-76
2023/12/13 10:34:13;;;;;;;4.85;4.32;;;;;;;3.94;100.00;101722.63;5051334;28;20039;-73
2023/12/13 10:36:39;;;;;;;0.30;0.30;;;;;;;3.49;100.00;101633.94;5059072;28;20033;-74
2023/12/13 10:39:07;;;;;;;1.95;1.85;;;;;;;3.98;100.00;101675.22;5072053;28;20043;-74
2023/12/13 10:41:33;;;;;;;0.88;0.88;;;;;;;3.26;100.00;101526.47;5065133;28;20052;-75
2023/12/13 10:44:02;;;;;;;0.50;0.50;;;;;;;3.69;100.00;101579.50;5060208;28;20161;-73
2023/12/13 10:46:35;;;;;;;1.30;1.20;;;;;;;3.46;100.00;101496.25;5063610;28;20499;-74
2023/12/13 10:49:03;;;;;;;3.33;3.13;;;;;;;3.92;100.00;101493.16;5067005;28;20559;-74
2023/12/13 10:51:31;;;;;;;0.65;0.65;;;;;;;3.14;100.00;101326.22;5063049;28;20493;-74
2023/12/13 10:53:58;;;;;;;8.23;7.63;;;;;;;4.15;100.00;101374.69;5063766;28;20079;-73
2023/12/13 10:56:24;;;;;;;0.82;0.82;;;;;;;3.19;100.00;101165.66;5047824;28;20044;-74
2023/12/13 10:58:51;;;;;;;11.35;10.77;;;;;;;3.51;100.00;101112.47;5065923;28;20396;-74
2023/12/13 11:01:18;;;;;;;0.40;0.40;;;;;;;3.28;100.00;101031.19;5067033;28;20032;-75
2023/12/13 11:03:48;;;;;;;3.83;3.40;;;;;;;3.73;100.00;101021.69;5047738;28;20040;-73
2023/12/13 11:06:16;;;;;;;0.47;0.47;;;;;;;3.00;100.00;100814.94;5064057;28;20133;-74
2023/12/13 11:08:46;;;;;;;2.28;2.08;;;;;;;3.45;100.00;100643.59;5038640;28;20049;-73
2023/12/13 11:11:13;;;;;;;0.85;0.75;;;;;;;3.65;100.00;100511.91;5068264;28;20385;-73
2023/12/13 11:14:01;;;;;;;1.88;1.77;;;;;;;3.88;100.00;100477.97;5070657;28;20064;-75
2023/12/13 11:16:27;;;;;;;1.75;1.65;;;;;;;3.06;100.00;100348.53;5065325;28;20079;-74
2023/12/13 11:18:57;;;;;;;7.80;7.32;;;;;;;3.31;100.00;100367.41;5066032;28;20059;-73